Time;durP1;ratioP1;P1;durP2;ratioP2;P2;SDS_P1;SDS_P2;PMS_P1;PMS_P2;Temp;Humidity;BMP_temperature;BMP_pressure;BME280_temperature;BME280_humidity;BME280_pressure;Samples;Min_cycle;Max_cycle;Signal;HPM_P1;HPM_P2
2023/02/13 00:01:36;;;;;;;2.20;1.30;;;;;;;;;;5045745;28;20092;-45
2023/02/13 00:04:03;;;;;;;2.28;1.63;;;;;;;;;;5052153;28;20033;-47
2023/02/13 00:06:29;;;;;;;2.40;1.60;;;;;;;;;;5054681;28;20485;-44
2023/02/13 00:08:55;;;;;;;3.65;1.98;;;;;;;;;;5043980;28;20091;-46
2023/02/13 00:11:21;;;;;;;2.35;1.77;;;;;;;;;;5034769;28;20037;-44
2023/02/13 00:13:47;;;;;;;2.88;1.65;;;;;;;;;;5051705;28;20096;-45
2023/02/13 00:16:13;;;;;;;2.30;1.80;;;;;;;;;;5052585;28;20033;-45
2023/02/13 00:18:39;;;;;;;2.95;1.73;;;;;;;;;;5051105;28;20124;-45
2023/02/13 00:21:10;;;;;;;3.03;2.05;;;;;;;;;;5052392;28;20049;-46
2023/02/13 00:23:36;;;;;;;2.15;1.60;;;;;;;;;;5063385;28;20266;-44
2023/02/13 00:26:06;;;;;;;3.15;1.83;;;;;;;;;;5070560;28;20028;-45
2023/02/13 00:28:32;;;;;;;2.75;1.73;;;;;;;;;;5071092;28;20024;-47
2023/02/13 00:31:02;;;;;;;3.30;2.40;;;;;;;;;;5072424;28;20025;-45
2023/02/13 00:33:28;;;;;;;3.28;2.28;;;;;;;;;;5070750;28;20154;-46
2023/02/13 00:36:01;;;;;;;3.72;1.85;;;;;;;;;;5072391;28;20525;-46
2023/02/13 00:38:29;;;;;;;2.38;1.73;;;;;;;;;;5065368;28;20070;-46
2023/02/13 00:40:55;;;;;;;2.25;1.60;;;;;;;;;;5067489;28;20150;-45
2023/02/13 00:43:21;;;;;;;3.50;2.50;;;;;;;;;;5071660;28;20099;-43
2023/02/13 00:45:47;;;;;;;2.85;2.08;;;;;;;;;;5071025;28;20025;-46
2023/02/13 00:48:13;;;;;;;3.45;1.92;;;;;;;;;;5072051;28;20025;-46
2023/02/13 00:50:38;;;;;;;2.97;1.90;;;;;;;;;;5070888;28;20152;-46
2023/02/13 00:53:04;;;;;;;3.58;2.50;;;;;;;;;;5067316;28;20032;-46
2023/02/13 00:55:30;;;;;;;2.63;1.83;;;;;;;;;;5058840;28;20075;-44
2023/02/13 00:57:56;;;;;;;2.20;1.70;;;;;;;;;;5070110;28;20028;-45
2023/02/13 01:00:22;;;;;;;3.17;1.92;;;;;;;;;;5071458;28;20025;-43
2023/02/13 01:02:48;;;;;;;2.38;1.60;;;;;;;;;;5057719;28;20035;-44
2023/02/13 01:05:14;;;;;;;2.17;1.73;;;;;;;;;;5071461;28;20111;-45
2023/02/13 01:07:40;;;;;;;2.92;2.20;;;;;;;;;;5072352;28;20029;-46
2023/02/13 01:10:06;;;;;;;2.38;1.95;;;;;;;;;;5070927;28;20076;-49
2023/02/13 01:12:32;;;;;;;3.30;2.13;;;;;;;;;;5064743;28;20029;-48
2023/02/13 01:14:58;;;;;;;2.55;1.73;;;;;;;;;;5062094;28;20036;-50
2023/02/13 01:17:24;;;;;;;2.00;1.67;;;;;;;;;;5068025;28;20034;-44
2023/02/13 01:19:50;;;;;;;2.65;1.80;;;;;;;;;;5065763;28;20501;-47
2023/02/13 01:22:16;;;;;;;2.85;2.03;;;;;;;;;;5070706;28;20025;-49
2023/02/13 01:24:42;;;;;;;2.63;2.28;;;;;;;;;;5070038;28;20616;-47
2023/02/13 01:27:08;;;;;;;2.78;1.83;;;;;;;;;;5071150;28;20028;-48
2023/02/13 01:29:34;;;;;;;3.15;2.10;;;;;;;;;;5069745;28;20028;-46
2023/02/13 01:32:02;;;;;;;3.65;2.05;;;;;;;;;;5059682;28;20029;-47
2023/02/13 01:34:28;;;;;;;2.67;1.88;;;;;;;;;;5069929;28;20009;-49
2023/02/13 01:36:54;;;;;;;3.13;1.67;;;;;;;;;;5071216;28;20025;-47
2023/02/13 01:39:20;;;;;;;3.70;2.45;;;;;;;;;;5072601;28;20476;-46
2023/02/13 01:41:46;;;;;;;2.30;1.63;;;;;;;;;;5074379;28;20115;-46
2023/02/13 01:44:31;;;;;;;4.10;2.22;;;;;;;;;;5056318;28;20029;-46
2023/02/13 01:46:57;;;;;;;3.00;1.85;;;;;;;;;;5075186;28;20072;-45
2023/02/13 01:49:24;;;;;;;3.05;1.83;;;;;;;;;;5074175;28;20021;-44
2023/02/13 01:51:53;;;;;;;2.42;1.80;;;;;;;;;;5074969;28;20104;-46
2023/02/13 01:54:22;;;;;;;3.28;2.40;;;;;;;;;;5068877;28;20473;-47
2023/02/13 01:56:51;;;;;;;3.25;2.28;;;;;;;;;;5075446;28;20028;-46
2023/02/13 01:59:22;;;;;;;2.75;1.90;;;;;;;;;;5074263;28;20025;-47
2023/02/13 02:01:48;;;;;;;2.65;1.83;;;;;;;;;;5074616;28;20047;-48
2023/02/13 02:04:34;;;;;;;2.20;1.80;;;;;;;;;;5074295;28;20104;-46
2023/02/13 02:07:21;;;;;;;3.38;2.15;;;;;;;;;;5071644;28;20040;-45
2023/02/13 02:09:47;;;;;;;2.50;1.75;;;;;;;;;;5068677;28;20127;-47
2023/02/13 02:12:24;;;;;;;3.35;2.22;;;;;;;;;;5074626;28;20024;-46
2023/02/13 02:14:50;;;;;;;2.67;1.85;;;;;;;;;;5081641;28;20028;-46
2023/02/13 02:17:17;;;;;;;3.20;2.22;;;;;;;;;;5057299;28;20040;-46
2023/02/13 02:19:55;;;;;;;2.95;1.95;;;;;;;;;;5073503;28;20031;-47
2023/02/13 02:22:30;;;;;;;3.10;1.88;;;;;;;;;;5074327;28;20017;-43
2023/02/13 02:25:09;;;;;;;2.53;1.77;;;;;;;;;;5074357;28;20032;-47
2023/02/13 02:27:50;;;;;;;3.17;2.33;;;;;;;;;;5073828;28;20036;-46
2023/02/13 02:30:16;;;;;;;2.88;1.90;;;;;;;;;;5070918;28;20155;-46
2023/02/13 02:33:00;;;;;;;2.30;1.92;;;;;;;;;;5074268;28;20255;-46
2023/02/13 02:35:32;;;;;;;2.72;2.00;;;;;;;;;;5073192;28;20029;-47
2023/02/13 02:37:58;;;;;;;;;;;;;;;;;;5056962;28;20463;-46
2023/02/13 02:40:41;;;;;;;2.42;1.98;;;;;;;;;;5073385;28;19995;-44
2023/02/13 02:43:13;;;;;;;3.08;2.03;;;;;;;;;;5074579;28;20025;-46
2023/02/13 02:45:45;;;;;;;5.10;2.78;;;;;;;;;;5066443;28;20032;-44
2023/02/13 02:51:19;;;;;;;2.45;1.90;;;;;;;;;;5072989;28;20048;-45
2023/02/13 02:53:45;;;;;;;3.20;2.05;;;;;;;;;;5072548;28;20039;-46
2023/02/13 02:56:10;;;;;;;2.83;2.03;;;;;;;;;;5056095;28;20058;-46
2023/02/13 03:07:02;;;;;;;3.10;2.00;;;;;;;;;;5073961;28;20090;-46
2023/02/13 03:15:13;;;;;;;2.78;2.30;;;;;;;;;;5072897;28;20032;-46
2023/02/13 03:22:17;;;;;;;4.55;2.58;;;;;;;;;;5074833;28;20061;-43
2023/02/13 03:23:29;;;;;;;2.65;1.83;;;;;;;;;;5072925;28;20040;-43
2023/02/13 03:25:55;;;;;;;;;;;;;;;;;;5073989;28;20534;-46
2023/02/13 03:31:34;;;;;;;3.05;2.17;;;;;;;;;;5073053;28;20059;-43
2023/02/13 03:34:09;;;;;;;3.10;2.00;;;;;;;;;;5066136;28;20035;-47
2023/02/13 03:39:47;;;;;;;3.65;2.45;;;;;;;;;;5071426;28;20032;-46
2023/02/13 03:42:19;;;;;;;3.78;2.42;;;;;;;;;;5072656;28;20564;-45
2023/02/13 03:45:51;;;;;;;2.92;1.98;;;;;;;;;;5071563;28;20599;-46
2023/02/13 03:47:38;;;;;;;2.58;1.75;;;;;;;;;;5071909;28;20450;-46
2023/02/13 03:50:05;;;;;;;3.72;2.33;;;;;;;;;;5072420;28;20420;-46
2023/02/13 03:52:40;;;;;;;2.78;2.30;;;;;;;;;;5064609;28;20534;-45
2023/02/13 04:00:47;;;;;;;3.85;2.80;;;;;;;;;;5071337;28;20191;-45
2023/02/13 04:03:16;;;;;;;4.78;2.85;;;;;;;;;;5072135;28;20358;-46
2023/02/13 04:05:44;;;;;;;5.35;2.60;;;;;;;;;;5052984;28;20638;-45
2023/02/13 04:08:11;;;;;;;3.65;2.20;;;;;;;;;;5072679;28;20024;-46
2023/02/13 04:10:39;;;;;;;2.88;1.95;;;;;;;;;;5070691;28;20489;-46
2023/02/13 04:13:13;;;;;;;2.60;2.05;;;;;;;;;;5072260;28;20043;-46
2023/02/13 04:15:48;;;;;;;3.85;2.58;;;;;;;;;;5070654;28;20032;-44
2023/02/13 04:18:17;;;;;;;3.50;2.13;;;;;;;;;;5072461;28;20024;-45
2023/02/13 04:20:43;;;;;;;2.47;1.88;;;;;;;;;;5070866;28;20023;-44
2023/02/13 04:23:10;;;;;;;4.05;2.20;;;;;;;;;;5072222;28;20028;-46
2023/02/13 04:25:37;;;;;;;2.90;2.38;;;;;;;;;;5070720;28;20415;-47
2023/02/13 04:28:03;;;;;;;3.25;2.13;;;;;;;;;;5072129;28;20032;-47
2023/02/13 04:30:29;;;;;;;3.58;2.30;;;;;;;;;;5069675;28;20063;-47
2023/02/13 04:32:55;;;;;;;2.78;2.00;;;;;;;;;;5071484;28;20409;-49
2023/02/13 04:35:21;;;;;;;2.85;2.15;;;;;;;;;;5071177;28;20024;-43
2023/02/13 04:37:47;;;;;;;2.95;1.90;;;;;;;;;;5071422;28;20060;-51
2023/02/13 04:40:13;;;;;;;3.95;2.45;;;;;;;;;;5070240;28;20489;-47
2023/02/13 04:42:39;;;;;;;2.80;1.98;;;;;;;;;;5071225;28;20029;-46
2023/02/13 04:45:05;;;;;;;2.92;2.22;;;;;;;;;;5066203;28;20040;-46
2023/02/13 04:47:31;;;;;;;2.50;1.95;;;;;;;;;;5063396;28;20044;-48
2023/02/13 04:49:57;;;;;;;3.13;2.30;;;;;;;;;;5071738;28;20385;-49
2023/02/13 04:52:23;;;;;;;2.53;1.90;;;;;;;;;;5064641;28;20025;-43
2023/02/13 04:54:49;;;;;;;3.33;2.25;;;;;;;;;;5071269;28;20513;-48
2023/02/13 04:57:15;;;;;;;2.85;2.05;;;;;;;;;;5072011;28;20028;-49
2023/02/13 04:59:41;;;;;;;3.53;2.45;;;;;;;;;;5070725;28;20115;-45
2023/02/13 05:02:07;;;;;;;4.32;2.17;;;;;;;;;;5071830;28;20028;-45
2023/02/13 05:04:33;;;;;;;3.45;2.67;;;;;;;;;;5070702;28;20494;-46
2023/02/13 05:06:59;;;;;;;3.28;2.35;;;;;;;;;;5070005;28;20391;-44
2023/02/13 05:09:25;;;;;;;2.50;2.10;;;;;;;;;;5064666;28;20041;-46
2023/02/13 05:11:52;;;;;;;3.45;2.60;;;;;;;;;;5080552;28;20392;-48
2023/02/13 05:14:18;;;;;;;4.15;2.50;;;;;;;;;;5070635;28;20028;-46
2023/02/13 05:16:44;;;;;;;2.92;2.15;;;;;;;;;;5070905;28;20677;-46
2023/02/13 05:19:10;;;;;;;3.70;2.35;;;;;;;;;;5071405;28;20443;-46
2023/02/13 05:24:21;;;;;;;3.15;2.20;;;;;;;;;;5058366;28;20032;-44
2023/02/13 05:26:47;;;;;;;2.97;2.00;;;;;;;;;;5065344;28;20045;-48
2023/02/13 05:29:19;;;;;;;2.85;2.22;;;;;;;;;;5071267;28;20092;-46
2023/02/13 05:31:45;;;;;;;;;;;;;;;;;;5065295;28;20016;-46
2023/02/13 05:34:10;;;;;;;4.60;2.45;;;;;;;;;;5071116;28;19995;-45
2023/02/13 05:36:36;;;;;;;3.38;2.50;;;;;;;;;;5071091;28;20521;-45
2023/02/13 05:39:03;;;;;;;3.58;2.00;;;;;;;;;;5071119;28;20025;-47
2023/02/13 05:41:29;;;;;;;3.42;2.50;;;;;;;;;;5070764;28;20035;-47
2023/02/13 05:43:55;;;;;;;2.83;2.13;;;;;;;;;;5063502;28;20450;-48
2023/02/13 05:46:21;;;;;;;3.28;2.35;;;;;;;;;;5071081;28;20063;-45
2023/02/13 05:48:47;;;;;;;2.45;1.63;;;;;;;;;;5070074;28;20108;-46
2023/02/13 05:51:13;;;;;;;3.20;2.28;;;;;;;;;;5071520;28;20139;-47
2023/02/13 05:53:39;;;;;;;3.25;2.30;;;;;;;;;;5070260;28;20437;-50
2023/02/13 05:56:06;;;;;;;3.25;2.08;;;;;;;;;;5071300;28;20122;-50
2023/02/13 05:58:32;;;;;;;2.72;2.00;;;;;;;;;;5070043;28;20032;-51
2023/02/13 06:00:58;;;;;;;3.35;2.65;;;;;;;;;;5064789;28;20021;-50
2023/02/13 06:03:25;;;;;;;3.20;2.17;;;;;;;;;;5059982;28;20143;-45
2023/02/13 06:05:52;;;;;;;3.47;2.30;;;;;;;;;;5066471;28;20040;-49
2023/02/13 06:08:18;;;;;;;3.85;1.88;;;;;;;;;;5070627;28;20025;-48
2023/02/13 06:10:44;;;;;;;4.00;2.35;;;;;;;;;;5069070;28;20752;-50
2023/02/13 06:13:10;;;;;;;3.20;2.40;;;;;;;;;;5070764;28;20096;-47
2023/02/13 06:15:36;;;;;;;2.97;2.47;;;;;;;;;;5069477;28;20021;-50
2023/02/13 06:18:02;;;;;;;3.38;2.45;;;;;;;;;;5063116;28;20033;-49
2023/02/13 06:20:28;;;;;;;2.65;2.00;;;;;;;;;;5066043;28;20017;-48
2023/02/13 06:22:54;;;;;;;3.00;2.40;;;;;;;;;;5070578;28;20016;-51
2023/02/13 06:25:20;;;;;;;3.35;2.33;;;;;;;;;;5067696;28;20458;-48
2023/02/13 06:27:46;;;;;;;3.10;2.10;;;;;;;;;;5073328;28;20036;-48
2023/02/13 06:30:13;;;;;;;3.92;2.25;;;;;;;;;;5073977;28;20032;-50
2023/02/13 06:32:39;;;;;;;6.68;3.88;;;;;;;;;;5073406;28;20028;-46
2023/02/13 06:35:05;;;;;;;3.47;2.35;;;;;;;;;;5073256;28;20074;-47
2023/02/13 06:37:31;;;;;;;3.13;2.10;;;;;;;;;;5073036;28;20466;-47
2023/02/13 06:39:57;;;;;;;5.43;2.10;;;;;;;;;;5073465;28;20028;-50
2023/02/13 06:42:23;;;;;;;2.72;1.85;;;;;;;;;;5073770;28;20025;-46
2023/02/13 06:44:49;;;;;;;3.40;2.33;;;;;;;;;;5073218;28;20032;-47
2023/02/13 06:47:15;;;;;;;6.22;2.35;;;;;;;;;;5073779;28;20044;-47
2023/02/13 06:49:41;;;;;;;4.68;2.70;;;;;;;;;;5072373;28;20017;-48
2023/02/13 06:52:07;;;;;;;5.10;3.15;;;;;;;;;;5073625;28;20077;-50
2023/02/13 06:54:33;;;;;;;5.10;2.58;;;;;;;;;;5068148;28;20055;-50
2023/02/13 06:56:59;;;;;;;3.47;2.20;;;;;;;;;;5073717;28;20056;-48
2023/02/13 06:59:25;;;;;;;5.90;2.47;;;;;;;;;;5072362;28;20028;-45
2023/02/13 07:01:51;;;;;;;4.38;2.22;;;;;;;;;;5074171;28;20025;-47
2023/02/13 07:04:17;;;;;;;4.70;2.78;;;;;;;;;;5073338;28;20139;-51
2023/02/13 07:06:43;;;;;;;5.43;2.42;;;;;;;;;;5064213;28;20039;-49
2023/02/13 07:09:11;;;;;;;8.18;2.58;;;;;;;;;;5069489;28;20074;-47
2023/02/13 07:11:37;;;;;;;8.05;2.05;;;;;;;;;;5059604;28;20029;-45
2023/02/13 07:14:03;;;;;;;5.95;2.63;;;;;;;;;;5055772;28;20473;-43
2023/02/13 07:16:29;;;;;;;4.60;2.85;;;;;;;;;;5052570;28;20048;-45
2023/02/13 07:18:55;;;;;;;4.22;2.72;;;;;;;;;;5065046;28;20035;-44
2023/02/13 07:21:21;;;;;;;7.53;2.40;;;;;;;;;;5068352;28;20669;-44
2023/02/13 07:23:47;;;;;;;5.72;3.00;;;;;;;;;;5071862;28;20020;-46
2023/02/13 07:26:15;;;;;;;4.03;2.67;;;;;;;;;;5072378;28;20430;-45
2023/02/13 07:28:41;;;;;;;6.82;2.60;;;;;;;;;;5071173;28;20791;-45
2023/02/13 07:31:07;;;;;;;11.65;5.85;;;;;;;;;;5072629;28;20024;-45
2023/02/13 07:33:33;;;;;;;22.30;12.05;;;;;;;;;;5060423;28;20020;-49
2023/02/13 07:36:02;;;;;;;22.63;13.05;;;;;;;;;;5066421;28;20070;-47
2023/02/13 07:38:29;;;;;;;20.88;12.95;;;;;;;;;;5062957;28;20104;-46
2023/02/13 07:40:57;;;;;;;24.65;12.48;;;;;;;;;;5070037;28;20029;-46
2023/02/13 07:43:23;;;;;;;19.02;11.63;;;;;;;;;;5073232;28;20028;-43
2023/02/13 07:45:54;;;;;;;18.20;10.82;;;;;;;;;;5071081;28;20070;-45
2023/02/13 07:48:20;;;;;;;15.68;9.18;;;;;;;;;;5072603;28;20042;-45
2023/02/13 07:50:45;;;;;;;14.45;8.27;;;;;;;;;;5066034;28;20462;-47
2023/02/13 07:53:12;;;;;;;13.13;8.55;;;;;;;;;;5067251;28;20033;-45
2023/02/13 07:55:38;;;;;;;12.32;7.72;;;;;;;;;;5071403;28;20097;-45
2023/02/13 07:58:04;;;;;;;12.77;7.88;;;;;;;;;;5071748;28;20102;-45
2023/02/13 08:00:30;;;;;;;12.15;7.55;;;;;;;;;;5070630;28;20028;-49
2023/02/13 08:02:59;;;;;;;13.10;7.18;;;;;;;;;;5072551;28;20081;-45
2023/02/13 08:05:25;;;;;;;12.13;7.18;;;;;;;;;;5067146;28;20027;-45
2023/02/13 08:07:52;;;;;;;10.57;7.18;;;;;;;;;;5070068;28;20474;-44
2023/02/13 08:13:03;;;;;;;11.93;6.30;;;;;;;;;;5071441;28;20031;-47
2023/02/13 08:15:29;;;;;;;9.85;6.32;;;;;;;;;;5067249;28;20025;-45
2023/02/13 08:17:55;;;;;;;8.85;5.57;;;;;;;;;;5061233;28;20383;-48
2023/02/13 08:20:22;;;;;;;10.15;5.80;;;;;;;;;;5070860;28;20029;-46
2023/02/13 08:22:48;;;;;;;8.40;5.70;;;;;;;;;;5070984;28;20473;-45
2023/02/13 08:25:14;;;;;;;8.73;5.10;;;;;;;;;;5074160;28;20029;-45
2023/02/13 08:27:40;;;;;;;8.20;5.38;;;;;;;;;;5069141;28;20043;-47
2023/02/13 08:30:07;;;;;;;8.88;5.45;;;;;;;;;;5071209;28;20026;-47
2023/02/13 08:32:33;;;;;;;9.65;4.60;;;;;;;;;;5070266;28;20025;-47
2023/02/13 08:34:59;;;;;;;7.90;4.85;;;;;;;;;;5070107;28;20035;-48
2023/02/13 08:37:25;;;;;;;7.90;5.32;;;;;;;;;;5062523;28;20020;-44
2023/02/13 08:39:51;;;;;;;11.93;6.32;;;;;;;;;;5067953;28;20530;-46
2023/02/13 08:42:17;;;;;;;7.20;4.20;;;;;;;;;;5071981;28;20086;-45
2023/02/13 08:44:43;;;;;;;8.15;4.68;;;;;;;;;;5066707;28;20095;-45
2023/02/13 08:47:09;;;;;;;6.63;4.68;;;;;;;;;;5065886;28;20033;-48
2023/02/13 08:49:35;;;;;;;7.30;4.75;;;;;;;;;;5069616;28;20078;-45
2023/02/13 08:52:03;;;;;;;7.13;4.50;;;;;;;;;;5071733;28;20032;-44
2023/02/13 08:54:29;;;;;;;8.98;4.63;;;;;;;;;;5065599;28;20029;-44
2023/02/13 08:56:55;;;;;;;9.15;5.07;;;;;;;;;;5071446;28;20077;-48
2023/02/13 08:59:21;;;;;;;8.75;4.57;;;;;;;;;;5070500;28;20024;-44
2023/02/13 09:01:48;;;;;;;10.15;4.40;;;;;;;;;;5070664;28;20100;-46
2023/02/13 09:04:14;;;;;;;8.27;4.65;;;;;;;;;;5071020;28;20020;-46
2023/02/13 09:06:41;;;;;;;6.10;4.05;;;;;;;;;;5059777;28;20094;-47
2023/02/13 09:09:07;;;;;;;6.97;4.25;;;;;;;;;;5054195;28;20509;-46
2023/02/13 09:11:33;;;;;;;6.82;3.95;;;;;;;;;;5070781;28;20032;-49
2023/02/13 09:13:59;;;;;;;6.88;4.22;;;;;;;;;;5070893;28;20021;-47
2023/02/13 09:16:25;;;;;;;7.05;4.95;;;;;;;;;;5070404;28;20492;-44
2023/02/13 09:18:51;;;;;;;6.70;4.03;;;;;;;;;;5069942;28;20103;-48
2023/02/13 09:21:19;;;;;;;6.40;3.65;;;;;;;;;;5070786;28;20453;-46
2023/02/13 09:23:45;;;;;;;6.15;3.63;;;;;;;;;;5069192;28;20094;-47
2023/02/13 09:26:12;;;;;;;6.35;3.92;;;;;;;;;;5071123;28;20035;-46
2023/02/13 09:28:38;;;;;;;5.53;3.70;;;;;;;;;;5065421;28;20021;-47
2023/02/13 09:31:07;;;;;;;5.28;3.55;;;;;;;;;;5070855;28;20473;-46
2023/02/13 09:33:33;;;;;;;4.30;3.17;;;;;;;;;;5069679;28;20021;-45
2023/02/13 09:36:03;;;;;;;4.97;3.58;;;;;;;;;;5070973;28;20465;-46
2023/02/13 09:38:29;;;;;;;6.50;3.58;;;;;;;;;;5069427;28;20408;-46
2023/02/13 09:41:00;;;;;;;5.55;2.95;;;;;;;;;;5068645;28;20074;-47
2023/02/13 09:43:26;;;;;;;5.93;3.65;;;;;;;;;;5069778;28;20486;-44
2023/02/13 09:45:55;;;;;;;4.57;3.03;;;;;;;;;;5069614;28;20035;-47
2023/02/13 09:48:28;;;;;;;6.28;3.50;;;;;;;;;;5070009;28;20040;-43
2023/02/13 09:50:54;;;;;;;4.93;3.38;;;;;;;;;;5068034;28;20031;-45
2023/02/13 09:53:22;;;;;;;5.68;2.90;;;;;;;;;;5052329;28;20074;-45
2023/02/13 09:56:09;;;;;;;4.22;3.20;;;;;;;;;;5070222;28;20494;-47
2023/02/13 09:58:46;;;;;;;4.93;3.03;;;;;;;;;;5069826;28;20594;-46
2023/02/13 10:01:20;;;;;;;5.35;3.30;;;;;;;;;;5073500;28;20397;-50
2023/02/13 10:03:46;;;;;;;4.30;2.67;;;;;;;;;;5073868;28;20025;-48
2023/02/13 10:06:21;;;;;;;5.13;3.30;;;;;;;;;;5067908;28;20378;-49
2023/02/13 10:09:19;;;;;;;6.03;2.97;;;;;;;;;;5064278;28;20024;-47
2023/02/13 10:12:04;;;;;;;7.63;3.35;;;;;;;;;;5015963;28;20033;-47
2023/02/13 10:14:30;;;;;;;3.80;2.63;;;;;;;;;;5073576;28;20077;-47
2023/02/13 10:17:00;;;;;;;5.85;2.85;;;;;;;;;;5074340;28;20025;-47
2023/02/13 10:19:32;;;;;;;6.55;3.53;;;;;;;;;;5062096;28;20077;-47
2023/02/13 10:21:58;;;;;;;;;;;;;;;;;;5074691;28;20039;-45
2023/02/13 10:24:37;;;;;;;5.95;3.40;;;;;;;;;;5073082;28;19905;-43
2023/02/13 10:27:14;;;;;;;7.45;3.45;;;;;;;;;;5068132;28;20041;-46
2023/02/13 10:30:04;;;;;;;4.95;2.83;;;;;;;;;;5072469;28;20021;-50
2023/02/13 10:32:43;;;;;;;4.43;2.70;;;;;;;;;;5060160;28;20029;-48
2023/02/13 10:35:25;;;;;;;6.40;4.15;;;;;;;;;;5071725;28;20029;-46
2023/02/13 10:37:51;;;;;;;;;;;;;;;;;;5069553;28;20025;-49
2023/02/13 10:40:18;;;;;;;4.28;2.63;;;;;;;;;;5073633;28;19911;-47
2023/02/13 10:42:45;;;;;;;3.20;2.50;;;;;;;;;;5063186;28;20017;-50
2023/02/13 10:45:14;;;;;;;2.88;2.20;;;;;;;;;;5072870;28;20045;-45
2023/02/13 10:47:55;;;;;;;5.80;2.50;;;;;;;;;;5071824;28;20029;-46
2023/02/13 10:50:30;;;;;;;3.93;2.47;;;;;;;;;;5064472;28;20075;-44
2023/02/13 10:53:03;;;;;;;3.67;2.45;;;;;;;;;;5073925;28;20373;-47
2023/02/13 10:55:45;;;;;;;4.82;2.92;;;;;;;;;;5064423;28;20039;-49
2023/02/13 10:58:43;;;;;;;5.50;2.33;;;;;;;;;;5073734;28;20067;-47
2023/02/13 11:01:21;;;;;;;13.77;2.53;;;;;;;;;;5024433;28;20054;-48
2023/02/13 11:03:50;;;;;;;3.67;2.45;;;;;;;;;;5072300;28;20086;-50
2023/02/13 11:06:19;;;;;;;9.48;3.25;;;;;;;;;;5073275;28;20036;-48
2023/02/13 11:08:47;;;;;;;5.85;2.75;;;;;;;;;;5063942;28;20029;-46
2023/02/13 11:11:32;;;;;;;3.88;2.72;;;;;;;;;;5072106;28;20417;-50
2023/02/13 11:14:07;;;;;;;4.75;2.67;;;;;;;;;;5072787;28;20036;-47
2023/02/13 11:16:42;;;;;;;4.72;2.25;;;;;;;;;;5063293;28;20035;-49
2023/02/13 11:19:16;;;;;;;4.25;2.13;;;;;;;;;;5070234;28;20021;-48
2023/02/13 11:21:43;;;;;;;4.57;2.40;;;;;;;;;;5073000;28;20051;-51
2023/02/13 11:24:17;;;;;;;4.82;2.60;;;;;;;;;;5072448;28;20028;-49
2023/02/13 11:26:43;;;;;;;4.00;2.25;;;;;;;;;;5071826;28;20116;-50
2023/02/13 11:29:17;;;;;;;4.93;2.10;;;;;;;;;;5072096;28;20435;-49
2023/02/13 11:31:43;;;;;;;6.15;2.42;;;;;;;;;;5069914;28;20611;-49
2023/02/13 11:34:21;;;;;;;9.32;2.92;;;;;;;;;;5069146;28;20099;-51
2023/02/13 11:36:51;;;;;;;4.05;2.38;;;;;;;;;;5070262;28;20021;-50
2023/02/13 11:39:19;;;;;;;3.53;2.10;;;;;;;;;;5058755;28;20474;-50
2023/02/13 11:41:45;;;;;;;3.53;2.20;;;;;;;;;;5072200;28;20611;-46
2023/02/13 11:44:20;;;;;;;4.45;1.95;;;;;;;;;;5068420;28;20043;-46
2023/02/13 11:46:47;;;;;;;6.55;2.10;;;;;;;;;;5073883;28;20077;-45
2023/02/13 11:49:20;;;;;;;7.00;2.72;;;;;;;;;;5072284;28;20020;-48
2023/02/13 11:51:48;;;;;;;4.50;1.90;;;;;;;;;;5062169;28;20458;-46
2023/02/13 11:54:33;;;;;;;2.42;1.98;;;;;;;;;;5072147;28;20025;-47
2023/02/13 11:57:02;;;;;;;4.07;2.30;;;;;;;;;;5062536;28;20123;-47
2023/02/13 11:59:30;;;;;;;7.45;2.13;;;;;;;;;;5061075;28;20020;-47
2023/02/13 12:02:12;;;;;;;5.10;2.22;;;;;;;;;;5072678;28;20052;-46
2023/02/13 12:04:38;;;;;;;4.05;2.10;;;;;;;;;;5072112;28;20103;-52
2023/02/13 12:07:12;;;;;;;4.32;1.98;;;;;;;;;;5064531;28;20121;-47
2023/02/13 12:09:39;;;;;;;5.03;2.65;;;;;;;;;;5064842;28;20044;-45
2023/02/13 12:12:06;;;;;;;6.30;1.83;;;;;;;;;;5072617;28;20101;-49
2023/02/13 12:14:36;;;;;;;2.90;1.98;;;;;;;;;;5065399;28;20072;-48
2023/02/13 12:17:02;;;;;;;3.35;1.73;;;;;;;;;;5069807;28;20034;-46
2023/02/13 12:19:33;;;;;;;3.92;2.17;;;;;;;;;;5070774;28;20095;-47
2023/02/13 12:22:02;;;;;;;5.05;2.20;;;;;;;;;;5071875;28;20024;-49
2023/02/13 12:24:43;;;;;;;3.65;1.90;;;;;;;;;;5062040;28;20216;-48
2023/02/13 12:27:12;;;;;;;4.23;1.67;;;;;;;;;;5071105;28;20033;-49
2023/02/13 12:29:55;;;;;;;2.95;1.80;;;;;;;;;;5070605;28;20024;-49
2023/02/13 12:32:27;;;;;;;3.38;1.95;;;;;;;;;;5063639;28;20048;-46
2023/02/13 12:35:03;;;;;;;3.33;2.00;;;;;;;;;;5070103;28;20037;-49
2023/02/13 12:37:29;;;;;;;4.05;2.10;;;;;;;;;;5061799;28;20078;-48
2023/02/13 12:39:55;;;;;;;6.05;2.63;;;;;;;;;;5065534;28;20029;-52
2023/02/13 12:42:21;;;;;;;7.35;2.15;;;;;;;;;;5066611;28;20094;-52
2023/02/13 12:44:50;;;;;;;4.15;1.90;;;;;;;;;;5067226;28;20020;-51
2023/02/13 12:47:42;;;;;;;3.47;1.73;;;;;;;;;;5070737;28;20082;-50
2023/02/13 12:50:08;;;;;;;;;;;;;;;;;;5040735;28;20401;-49
2023/02/13 12:52:45;;;;;;;5.05;2.65;;;;;;;;;;5071050;28;19904;-50
2023/02/13 12:55:50;;;;;;;2.90;1.90;;;;;;;;;;5066298;28;20021;-50
2023/02/13 12:58:31;;;;;;;3.97;1.90;;;;;;;;;;4980269;28;20045;-49
2023/02/13 13:01:03;;;;;;;3.28;2.40;;;;;;;;;;4975300;28;20472;-49
2023/02/13 13:03:50;;;;;;;3.38;2.17;;;;;;;;;;4976085;28;20027;-50
2023/02/13 13:06:22;;;;;;;3.05;1.70;;;;;;;;;;4977334;28;20464;-50
2023/02/13 13:08:55;;;;;;;5.03;2.20;;;;;;;;;;4988339;28;20034;-48
2023/02/13 13:11:39;;;;;;;3.55;1.95;;;;;;;;;;4976983;28;20034;-51
2023/02/13 13:14:05;;;;;;;4.35;2.40;;;;;;;;;;4983867;28;20030;-48
2023/02/13 13:16:31;;;;;;;2.78;2.00;;;;;;;;;;4971924;28;20154;-50
2023/02/13 13:19:06;;;;;;;2.30;1.60;;;;;;;;;;4977259;28;20089;-48
2023/02/13 13:21:35;;;;;;;3.75;1.63;;;;;;;;;;4978243;28;20027;-48
2023/02/13 13:24:13;;;;;;;2.90;1.85;;;;;;;;;;4971765;28;20438;-47
2023/02/13 13:26:44;;;;;;;2.63;1.58;;;;;;;;;;4972501;28;20534;-50
2023/02/13 13:29:12;;;;;;;3.70;2.58;;;;;;;;;;5014664;28;20111;-49
2023/02/13 13:31:38;;;;;;;2.30;1.63;;;;;;;;;;5048552;28;20076;-51
2023/02/13 13:34:10;;;;;;;2.60;1.85;;;;;;;;;;5040195;28;20382;-49
2023/02/13 13:36:36;;;;;;;3.22;1.58;;;;;;;;;;5056821;28;20029;-47
2023/02/13 13:39:06;;;;;;;2.83;1.60;;;;;;;;;;5052889;28;20036;-46
2023/02/13 13:41:53;;;;;;;2.55;1.70;;;;;;;;;;5058899;28;20021;-50
2023/02/13 13:44:31;;;;;;;8.63;1.88;;;;;;;;;;5057100;28;20405;-48
2023/02/13 13:46:57;;;;;;;2.13;1.40;;;;;;;;;;5057346;28;20040;-48
2023/02/13 13:49:32;;;;;;;2.65;1.70;;;;;;;;;;5051672;28;20032;-47
2023/02/13 13:52:17;;;;;;;4.65;1.70;;;;;;;;;;5056380;28;20040;-48
2023/02/13 13:54:45;;;;;;;2.88;1.80;;;;;;;;;;5056258;28;20648;-49
2023/02/13 13:57:11;;;;;;;3.03;1.60;;;;;;;;;;5044747;28;20052;-50
2023/02/13 13:59:37;;;;;;;3.20;2.17;;;;;;;;;;5049651;28;20424;-47
2023/02/13 14:02:18;;;;;;;4.97;1.88;;;;;;;;;;5053605;28;20095;-47
2023/02/13 14:05:03;;;;;;;2.88;2.00;;;;;;;;;;5045055;28;20021;-50
2023/02/13 14:07:42;;;;;;;2.50;2.10;;;;;;;;;;5043359;28;20471;-50
2023/02/13 14:10:36;;;;;;;4.75;2.20;;;;;;;;;;5066690;28;20072;-48
2023/02/13 14:13:02;;;;;;;2.08;1.48;;;;;;;;;;5032397;28;20033;-49
2023/02/13 14:15:38;;;;;;;5.25;1.92;;;;;;;;;;5079292;28;20023;-50
2023/02/13 14:18:06;;;;;;;2.85;1.67;;;;;;;;;;5078768;28;20071;-48
2023/02/13 14:20:35;;;;;;;2.55;1.70;;;;;;;;;;5075799;28;20028;-52
2023/02/13 14:23:24;;;;;;;5.15;2.10;;;;;;;;;;5073843;28;20410;-50
2023/02/13 14:26:09;;;;;;;3.33;1.58;;;;;;;;;;5065979;28;20064;-50
2023/02/13 14:28:35;;;;;;;3.60;1.77;;;;;;;;;;5076577;28;20036;-48
2023/02/13 14:31:21;;;;;;;3.72;1.58;;;;;;;;;;5076901;28;20020;-51
2023/02/13 14:33:55;;;;;;;2.65;1.50;;;;;;;;;;5076215;28;20047;-48
2023/02/13 14:36:22;;;;;;;12.85;1.83;;;;;;;;;;5075162;28;20055;-45
2023/02/13 14:39:20;;;;;;;2.50;1.45;;;;;;;;;;5076256;28;20028;-50
2023/02/13 14:41:55;;;;;;;3.50;2.10;;;;;;;;;;5035396;28;20040;-49
2023/02/13 14:44:33;;;;;;;2.17;1.27;;;;;;;;;;5076581;28;20414;-48
2023/02/13 14:47:13;;;;;;;4.00;1.65;;;;;;;;;;5074762;28;20052;-47
2023/02/13 14:49:41;;;;;;;4.50;1.73;;;;;;;;;;5059825;28;20025;-46
2023/02/13 14:52:13;;;;;;;2.65;1.75;;;;;;;;;;5066299;28;20373;-48
2023/02/13 14:54:45;;;;;;;3.53;1.58;;;;;;;;;;5072403;28;20052;-49
2023/02/13 14:57:13;;;;;;;3.00;1.48;;;;;;;;;;5069926;28;20025;-46
2023/02/13 14:59:43;;;;;;;3.70;1.38;;;;;;;;;;5072401;28;20377;-48
2023/02/13 15:02:15;;;;;;;2.88;1.80;;;;;;;;;;5073284;28;20488;-47
2023/02/13 15:04:44;;;;;;;2.22;1.30;;;;;;;;;;5072554;28;20236;-48
2023/02/13 15:07:15;;;;;;;2.08;1.20;;;;;;;;;;5073288;28;20032;-48
2023/02/13 15:09:45;;;;;;;3.08;1.60;;;;;;;;;;5071996;28;20125;-47
2023/02/13 15:12:31;;;;;;;2.25;1.35;;;;;;;;;;5070915;28;20029;-47
2023/02/13 15:14:57;;;;;;;2.05;1.70;;;;;;;;;;5062481;28;20025;-49
2023/02/13 15:17:28;;;;;;;2.92;1.85;;;;;;;;;;5069590;28;20079;-45
2023/02/13 15:19:56;;;;;;;2.83;1.60;;;;;;;;;;5068982;28;20025;-44
2023/02/13 15:22:30;;;;;;;3.40;1.55;;;;;;;;;;5072856;28;20374;-45
2023/02/13 15:24:56;;;;;;;2.53;1.33;;;;;;;;;;5072920;28;20033;-50
2023/02/13 15:27:26;;;;;;;2.85;1.60;;;;;;;;;;5072801;28;20368;-47
2023/02/13 15:30:03;;;;;;;7.13;1.52;;;;;;;;;;5072328;28;20044;-47
2023/02/13 15:32:31;;;;;;;2.72;1.70;;;;;;;;;;5053930;28;20090;-47
2023/02/13 15:34:57;;;;;;;4.53;2.00;;;;;;;;;;5068444;28;20025;-44
2023/02/13 15:37:23;;;;;;;2.65;1.50;;;;;;;;;;5070327;28;20120;-46